sensor_id;sensor_type;location;lat;lon;timestamp;P1;durP1;ratioP1;P2;durP2;ratioP2
72132;SDS011;60008;50.826;6.896;2023-01-29T00:00:25;33.42;;;13.10;;
72132;SDS011;60008;50.826;6.896;2023-01-29T00:03:10;31.67;;;13.38;;
72132;SDS011;60008;50.826;6.896;2023-01-29T00:05:55;29.02;;;12.65;;
72132;SDS011;60008;50.826;6.896;2023-01-29T00:08:39;33.63;;;13.25;;
72132;SDS011;60008;50.826;6.896;2023-01-29T00:11:24;29.80;;;12.43;;
72132;SDS011;60008;50.826;6.896;2023-01-29T00:14:09;31.00;;;13.65;;
72132;SDS011;60008;50.826;6.896;2023-01-29T00:16:54;32.10;;;13.45;;
72132;SDS011;60008;50.826;6.896;2023-01-29T00:19:39;34.58;;;12.95;;
72132;SDS011;60008;50.826;6.896;2023-01-29T00:22:24;33.38;;;13.27;;
72132;SDS011;60008;50.826;6.896;2023-01-29T00:25:09;29.33;;;12.53;;
72132;SDS011;60008;50.826;6.896;2023-01-29T00:27:55;28.83;;;12.90;;
72132;SDS011;60008;50.826;6.896;2023-01-29T00:30:40;30.73;;;13.20;;
72132;SDS011;60008;50.826;6.896;2023-01-29T00:33:27;31.60;;;12.27;;
72132;SDS011;60008;50.826;6.896;2023-01-29T00:36:13;25.30;;;11.25;;
72132;SDS011;60008;50.826;6.896;2023-01-29T00:39:00;26.47;;;13.13;;
72132;SDS011;60008;50.826;6.896;2023-01-29T00:41:46;27.58;;;11.88;;
72132;SDS011;60008;50.826;6.896;2023-01-29T00:44:50;38.55;;;12.77;;
72132;SDS011;60008;50.826;6.896;2023-01-29T00:47:41;32.92;;;11.68;;
72132;SDS011;60008;50.826;6.896;2023-01-29T00:50:25;29.15;;;12.20;;
72132;SDS011;60008;50.826;6.896;2023-01-29T00:53:10;31.17;;;13.00;;
72132;SDS011;60008;50.826;6.896;2023-01-29T00:55:55;32.10;;;11.95;;
72132;SDS011;60008;50.826;6.896;2023-01-29T00:58:40;24.60;;;11.18;;
72132;SDS011;60008;50.826;6.896;2023-01-29T01:01:25;32.90;;;12.68;;
72132;SDS011;60008;50.826;6.896;2023-01-29T01:04:29;28.13;;;12.68;;
72132;SDS011;60008;50.826;6.896;2023-01-29T01:07:14;29.10;;;11.93;;
72132;SDS011;60008;50.826;6.896;2023-01-29T01:09:58;29.23;;;10.95;;
72132;SDS011;60008;50.826;6.896;2023-01-29T01:13:05;27.20;;;12.77;;
72132;SDS011;60008;50.826;6.896;2023-01-29T01:15:51;36.97;;;12.57;;
72132;SDS011;60008;50.826;6.896;2023-01-29T01:18:35;28.98;;;12.60;;
72132;SDS011;60008;50.826;6.896;2023-01-29T01:21:21;28.67;;;12.27;;
72132;SDS011;60008;50.826;6.896;2023-01-29T01:24:06;28.50;;;13.65;;
72132;SDS011;60008;50.826;6.896;2023-01-29T01:26:51;29.75;;;12.50;;
72132;SDS011;60008;50.826;6.896;2023-01-29T01:29:37;30.85;;;13.25;;
72132;SDS011;60008;50.826;6.896;2023-01-29T01:32:22;26.75;;;11.95;;
72132;SDS011;60008;50.826;6.896;2023-01-29T01:35:08;33.23;;;13.47;;
72132;SDS011;60008;50.826;6.896;2023-01-29T01:37:54;30.35;;;12.90;;
72132;SDS011;60008;50.826;6.896;2023-01-29T01:40:42;41.50;;;12.88;;
72132;SDS011;60008;50.826;6.896;2023-01-29T01:43:44;30.20;;;12.20;;
72132;SDS011;60008;50.826;6.896;2023-01-29T01:46:33;32.83;;;13.52;;
72132;SDS011;60008;50.826;6.896;2023-01-29T01:49:20;25.57;;;11.33;;
72132;SDS011;60008;50.826;6.896;2023-01-29T01:52:05;28.55;;;11.73;;
72132;SDS011;60008;50.826;6.896;2023-01-29T01:54:51;34.17;;;13.80;;
72132;SDS011;60008;50.826;6.896;2023-01-29T01:57:36;27.25;;;12.55;;
72132;SDS011;60008;50.826;6.896;2023-01-29T02:00:22;28.70;;;13.10;;
72132;SDS011;60008;50.826;6.896;2023-01-29T02:03:09;35.37;;;13.30;;
72132;SDS011;60008;50.826;6.896;2023-01-29T02:06:14;28.35;;;12.85;;
72132;SDS011;60008;50.826;6.896;2023-01-29T02:09:21;26.45;;;11.50;;
72132;SDS011;60008;50.826;6.896;2023-01-29T02:12:22;28.33;;;11.30;;
72132;SDS011;60008;50.826;6.896;2023-01-29T02:15:08;28.90;;;11.27;;
72132;SDS011;60008;50.826;6.896;2023-01-29T02:17:54;25.80;;;11.53;;
72132;SDS011;60008;50.826;6.896;2023-01-29T02:20:39;25.90;;;10.82;;
72132;SDS011;60008;50.826;6.896;2023-01-29T02:23:36;20.23;;;9.27;;
72132;SDS011;60008;50.826;6.896;2023-01-29T02:26:39;12.43;;;4.95;;
72132;SDS011;60008;50.826;6.896;2023-01-29T02:29:28;22.15;;;9.30;;
72132;SDS011;60008;50.826;6.896;2023-01-29T02:32:48;23.60;;;10.07;;
72132;SDS011;60008;50.826;6.896;2023-01-29T02:35:50;27.15;;;11.20;;
72132;SDS011;60008;50.826;6.896;2023-01-29T02:41:59;29.40;;;10.98;;
72132;SDS011;60008;50.826;6.896;2023-01-29T02:44:59;27.33;;;9.70;;
72132;SDS011;60008;50.826;6.896;2023-01-29T02:47:58;26.93;;;12.10;;
72132;SDS011;60008;50.826;6.896;2023-01-29T02:50:47;25.58;;;11.52;;
72132;SDS011;60008;50.826;6.896;2023-01-29T02:53:47;25.23;;;10.50;;
72132;SDS011;60008;50.826;6.896;2023-01-29T02:56:39;27.15;;;10.07;;
72132;SDS011;60008;50.826;6.896;2023-01-29T02:59:50;21.73;;;10.18;;
72132;SDS011;60008;50.826;6.896;2023-01-29T03:02:47;28.13;;;11.73;;
72132;SDS011;60008;50.826;6.896;2023-01-29T03:06:23;28.20;;;11.73;;
72132;SDS011;60008;50.826;6.896;2023-01-29T03:09:03;27.17;;;11.68;;
72132;SDS011;60008;50.826;6.896;2023-01-29T03:11:54;29.73;;;12.52;;
72132;SDS011;60008;50.826;6.896;2023-01-29T03:14:48;25.58;;;11.10;;
72132;SDS011;60008;50.826;6.896;2023-01-29T03:17:55;26.37;;;10.70;;
72132;SDS011;60008;50.826;6.896;2023-01-29T03:20:45;29.98;;;12.45;;
72132;SDS011;60008;50.826;6.896;2023-01-29T03:23:33;27.13;;;10.45;;
72132;SDS011;60008;50.826;6.896;2023-01-29T03:26:38;26.23;;;11.15;;
72132;SDS011;60008;50.826;6.896;2023-01-29T03:29:44;31.80;;;13.20;;
72132;SDS011;60008;50.826;6.896;2023-01-29T03:32:49;33.57;;;12.50;;
72132;SDS011;60008;50.826;6.896;2023-01-29T03:35:37;30.20;;;10.65;;
72132;SDS011;60008;50.826;6.896;2023-01-29T03:38:28;30.35;;;11.35;;
72132;SDS011;60008;50.826;6.896;2023-01-29T03:41:21;31.00;;;12.15;;
72132;SDS011;60008;50.826;6.896;2023-01-29T03:44:13;29.13;;;12.25;;
72132;SDS011;60008;50.826;6.896;2023-01-29T03:47:08;32.60;;;11.87;;
72132;SDS011;60008;50.826;6.896;2023-01-29T03:50:03;29.95;;;11.70;;
72132;SDS011;60008;50.826;6.896;2023-01-29T03:59:24;25.50;;;11.35;;
72132;SDS011;60008;50.826;6.896;2023-01-29T04:02:19;28.10;;;11.30;;
72132;SDS011;60008;50.826;6.896;2023-01-29T04:05:13;30.83;;;13.65;;
72132;SDS011;60008;50.826;6.896;2023-01-29T04:08:04;28.33;;;12.20;;
72132;SDS011;60008;50.826;6.896;2023-01-29T04:10:55;27.45;;;11.02;;
72132;SDS011;60008;50.826;6.896;2023-01-29T04:13:43;31.42;;;13.05;;
72132;SDS011;60008;50.826;6.896;2023-01-29T04:16:32;28.23;;;12.43;;
72132;SDS011;60008;50.826;6.896;2023-01-29T04:19:20;28.33;;;11.43;;
72132;SDS011;60008;50.826;6.896;2023-01-29T04:22:12;33.17;;;13.00;;
72132;SDS011;60008;50.826;6.896;2023-01-29T04:25:02;28.95;;;12.35;;
72132;SDS011;60008;50.826;6.896;2023-01-29T04:27:56;31.00;;;13.60;;
72132;SDS011;60008;50.826;6.896;2023-01-29T04:31:05;30.90;;;12.87;;
72132;SDS011;60008;50.826;6.896;2023-01-29T04:33:58;31.80;;;12.15;;
72132;SDS011;60008;50.826;6.896;2023-01-29T04:37:09;26.00;;;11.68;;
72132;SDS011;60008;50.826;6.896;2023-01-29T04:46:08;28.53;;;12.53;;
72132;SDS011;60008;50.826;6.896;2023-01-29T04:52:21;28.70;;;12.27;;
72132;SDS011;60008;50.826;6.896;2023-01-29T04:55:20;28.42;;;11.85;;
72132;SDS011;60008;50.826;6.896;2023-01-29T04:58:36;24.88;;;10.93;;
72132;SDS011;60008;50.826;6.896;2023-01-29T05:01:27;25.03;;;10.47;;
72132;SDS011;60008;50.826;6.896;2023-01-29T05:04:17;26.42;;;10.38;;
72132;SDS011;60008;50.826;6.896;2023-01-29T05:07:05;28.17;;;12.02;;
72132;SDS011;60008;50.826;6.896;2023-01-29T05:09:53;24.13;;;11.00;;
72132;SDS011;60008;50.826;6.896;2023-01-29T05:12:39;21.70;;;9.40;;
72132;SDS011;60008;50.826;6.896;2023-01-29T05:15:32;26.20;;;9.17;;
72132;SDS011;60008;50.826;6.896;2023-01-29T05:18:20;26.02;;;9.55;;
72132;SDS011;60008;50.826;6.896;2023-01-29T05:21:06;28.45;;;10.50;;
72132;SDS011;60008;50.826;6.896;2023-01-29T05:24:06;19.90;;;8.70;;
72132;SDS011;60008;50.826;6.896;2023-01-29T05:26:53;11.88;;;5.80;;
72132;SDS011;60008;50.826;6.896;2023-01-29T05:29:57;25.43;;;10.27;;
72132;SDS011;60008;50.826;6.896;2023-01-29T05:32:41;28.20;;;9.93;;
72132;SDS011;60008;50.826;6.896;2023-01-29T05:35:26;30.58;;;10.55;;
72132;SDS011;60008;50.826;6.896;2023-01-29T05:38:13;30.23;;;12.27;;
72132;SDS011;60008;50.826;6.896;2023-01-29T05:40:58;26.23;;;10.73;;
72132;SDS011;60008;50.826;6.896;2023-01-29T05:43:43;16.20;;;7.60;;
72132;SDS011;60008;50.826;6.896;2023-01-29T05:46:28;19.88;;;8.23;;
72132;SDS011;60008;50.826;6.896;2023-01-29T05:49:15;22.45;;;9.95;;
72132;SDS011;60008;50.826;6.896;2023-01-29T05:52:01;19.38;;;8.65;;
72132;SDS011;60008;50.826;6.896;2023-01-29T05:54:46;26.40;;;10.60;;
72132;SDS011;60008;50.826;6.896;2023-01-29T05:57:31;28.83;;;12.30;;
72132;SDS011;60008;50.826;6.896;2023-01-29T06:00:19;26.85;;;11.52;;
72132;SDS011;60008;50.826;6.896;2023-01-29T06:03:04;24.35;;;9.80;;
72132;SDS011;60008;50.826;6.896;2023-01-29T06:05:49;28.65;;;10.60;;
72132;SDS011;60008;50.826;6.896;2023-01-29T06:08:34;26.85;;;10.40;;
72132;SDS011;60008;50.826;6.896;2023-01-29T06:11:20;22.73;;;8.63;;
72132;SDS011;60008;50.826;6.896;2023-01-29T06:14:05;21.45;;;8.40;;
72132;SDS011;60008;50.826;6.896;2023-01-29T06:16:50;26.80;;;11.10;;
72132;SDS011;60008;50.826;6.896;2023-01-29T06:19:35;26.73;;;10.93;;
72132;SDS011;60008;50.826;6.896;2023-01-29T06:22:20;22.88;;;9.55;;
72132;SDS011;60008;50.826;6.896;2023-01-29T06:25:05;19.57;;;8.20;;
72132;SDS011;60008;50.826;6.896;2023-01-29T06:27:51;24.63;;;10.50;;
72132;SDS011;60008;50.826;6.896;2023-01-29T06:30:35;21.17;;;9.30;;
72132;SDS011;60008;50.826;6.896;2023-01-29T06:33:20;21.05;;;8.82;;
72132;SDS011;60008;50.826;6.896;2023-01-29T06:36:05;28.63;;;11.20;;
72132;SDS011;60008;50.826;6.896;2023-01-29T06:38:50;30.03;;;11.80;;
72132;SDS011;60008;50.826;6.896;2023-01-29T06:41:35;29.77;;;12.52;;
72132;SDS011;60008;50.826;6.896;2023-01-29T06:44:20;26.58;;;11.40;;
72132;SDS011;60008;50.826;6.896;2023-01-29T06:47:05;30.63;;;12.15;;
72132;SDS011;60008;50.826;6.896;2023-01-29T06:49:50;31.10;;;12.02;;
72132;SDS011;60008;50.826;6.896;2023-01-29T06:52:35;27.37;;;11.30;;
72132;SDS011;60008;50.826;6.896;2023-01-29T06:55:20;25.50;;;9.35;;
72132;SDS011;60008;50.826;6.896;2023-01-29T06:58:06;29.05;;;10.88;;
72132;SDS011;60008;50.826;6.896;2023-01-29T07:00:52;26.42;;;10.57;;
72132;SDS011;60008;50.826;6.896;2023-01-29T07:03:37;29.67;;;11.32;;
72132;SDS011;60008;50.826;6.896;2023-01-29T07:06:28;27.77;;;11.70;;
72132;SDS011;60008;50.826;6.896;2023-01-29T07:09:14;24.98;;;10.93;;
72132;SDS011;60008;50.826;6.896;2023-01-29T07:11:59;27.45;;;11.57;;
72132;SDS011;60008;50.826;6.896;2023-01-29T07:14:44;28.67;;;11.30;;
72132;SDS011;60008;50.826;6.896;2023-01-29T07:17:29;27.25;;;11.70;;
72132;SDS011;60008;50.826;6.896;2023-01-29T07:20:14;29.63;;;11.20;;
72132;SDS011;60008;50.826;6.896;2023-01-29T07:22:59;34.78;;;11.70;;
72132;SDS011;60008;50.826;6.896;2023-01-29T07:25:44;26.05;;;9.73;;
72132;SDS011;60008;50.826;6.896;2023-01-29T07:28:30;29.90;;;11.38;;
72132;SDS011;60008;50.826;6.896;2023-01-29T07:31:15;26.58;;;11.40;;
72132;SDS011;60008;50.826;6.896;2023-01-29T07:34:00;30.47;;;12.10;;
72132;SDS011;60008;50.826;6.896;2023-01-29T07:36:45;28.90;;;12.27;;
72132;SDS011;60008;50.826;6.896;2023-01-29T07:39:30;27.58;;;11.32;;
72132;SDS011;60008;50.826;6.896;2023-01-29T07:42:16;25.08;;;10.68;;
72132;SDS011;60008;50.826;6.896;2023-01-29T07:45:01;23.95;;;9.38;;
72132;SDS011;60008;50.826;6.896;2023-01-29T07:47:50;25.37;;;10.80;;
72132;SDS011;60008;50.826;6.896;2023-01-29T07:50:36;29.67;;;11.02;;
72132;SDS011;60008;50.826;6.896;2023-01-29T07:53:21;29.33;;;10.80;;
72132;SDS011;60008;50.826;6.896;2023-01-29T07:56:06;25.83;;;10.05;;
72132;SDS011;60008;50.826;6.896;2023-01-29T07:58:51;35.72;;;11.73;;
72132;SDS011;60008;50.826;6.896;2023-01-29T08:01:36;28.23;;;11.43;;
72132;SDS011;60008;50.826;6.896;2023-01-29T08:04:21;31.02;;;11.13;;
72132;SDS011;60008;50.826;6.896;2023-01-29T08:07:06;27.65;;;10.80;;
72132;SDS011;60008;50.826;6.896;2023-01-29T08:09:53;27.17;;;11.23;;
72132;SDS011;60008;50.826;6.896;2023-01-29T08:12:37;23.52;;;10.23;;
72132;SDS011;60008;50.826;6.896;2023-01-29T08:15:22;31.13;;;11.73;;
72132;SDS011;60008;50.826;6.896;2023-01-29T08:18:07;32.90;;;13.57;;
72132;SDS011;60008;50.826;6.896;2023-01-29T08:20:57;34.72;;;15.50;;
72132;SDS011;60008;50.826;6.896;2023-01-29T08:23:43;32.83;;;13.80;;
72132;SDS011;60008;50.826;6.896;2023-01-29T08:26:28;33.78;;;13.73;;
72132;SDS011;60008;50.826;6.896;2023-01-29T08:29:13;24.37;;;11.23;;
72132;SDS011;60008;50.826;6.896;2023-01-29T08:31:58;28.10;;;11.07;;
72132;SDS011;60008;50.826;6.896;2023-01-29T08:34:44;30.10;;;12.25;;
72132;SDS011;60008;50.826;6.896;2023-01-29T08:37:29;36.42;;;14.18;;
72132;SDS011;60008;50.826;6.896;2023-01-29T08:40:14;32.75;;;13.32;;
72132;SDS011;60008;50.826;6.896;2023-01-29T08:43:04;32.50;;;13.20;;
72132;SDS011;60008;50.826;6.896;2023-01-29T08:45:52;27.23;;;12.43;;
72132;SDS011;60008;50.826;6.896;2023-01-29T08:48:37;31.05;;;12.60;;
72132;SDS011;60008;50.826;6.896;2023-01-29T08:51:23;27.70;;;11.43;;
72132;SDS011;60008;50.826;6.896;2023-01-29T08:54:09;26.00;;;10.82;;
72132;SDS011;60008;50.826;6.896;2023-01-29T08:56:54;30.23;;;12.47;;
72132;SDS011;60008;50.826;6.896;2023-01-29T08:59:39;30.92;;;11.75;;
72132;SDS011;60008;50.826;6.896;2023-01-29T09:02:24;29.67;;;12.50;;
72132;SDS011;60008;50.826;6.896;2023-01-29T09:05:09;39.78;;;16.30;;
72132;SDS011;60008;50.826;6.896;2023-01-29T09:07:57;31.73;;;12.68;;
72132;SDS011;60008;50.826;6.896;2023-01-29T09:10:43;34.40;;;14.00;;
72132;SDS011;60008;50.826;6.896;2023-01-29T09:13:28;26.00;;;9.50;;
72132;SDS011;60008;50.826;6.896;2023-01-29T09:16:14;26.20;;;10.85;;
72132;SDS011;60008;50.826;6.896;2023-01-29T09:18:59;29.52;;;11.93;;
72132;SDS011;60008;50.826;6.896;2023-01-29T09:21:44;36.15;;;11.45;;
72132;SDS011;60008;50.826;6.896;2023-01-29T09:24:29;27.90;;;11.40;;
72132;SDS011;60008;50.826;6.896;2023-01-29T09:27:14;29.75;;;11.55;;
72132;SDS011;60008;50.826;6.896;2023-01-29T09:29:59;30.63;;;11.50;;
72132;SDS011;60008;50.826;6.896;2023-01-29T09:32:43;29.05;;;11.20;;
72132;SDS011;60008;50.826;6.896;2023-01-29T09:35:42;27.70;;;10.40;;
72132;SDS011;60008;50.826;6.896;2023-01-29T09:38:27;23.70;;;8.03;;
72132;SDS011;60008;50.826;6.896;2023-01-29T09:41:22;14.07;;;5.97;;
72132;SDS011;60008;50.826;6.896;2023-01-29T09:47:29;15.82;;;7.57;;
72132;SDS011;60008;50.826;6.896;2023-01-29T09:50:21;25.40;;;10.77;;
72132;SDS011;60008;50.826;6.896;2023-01-29T09:53:14;14.43;;;6.17;;
72132;SDS011;60008;50.826;6.896;2023-01-29T09:58:57;28.73;;;11.90;;
72132;SDS011;60008;50.826;6.896;2023-01-29T10:01:58;27.02;;;10.55;;
72132;SDS011;60008;50.826;6.896;2023-01-29T10:11:25;19.73;;;7.57;;
72132;SDS011;60008;50.826;6.896;2023-01-29T10:14:28;15.95;;;6.97;;
72132;SDS011;60008;50.826;6.896;2023-01-29T10:17:43;20.83;;;8.93;;
72132;SDS011;60008;50.826;6.896;2023-01-29T10:20:42;28.65;;;11.52;;
72132;SDS011;60008;50.826;6.896;2023-01-29T10:27:26;20.98;;;9.13;;
72132;SDS011;60008;50.826;6.896;2023-01-29T10:33:15;26.77;;;11.27;;
72132;SDS011;60008;50.826;6.896;2023-01-29T10:36:12;25.70;;;10.30;;
72132;SDS011;60008;50.826;6.896;2023-01-29T10:39:03;29.70;;;11.23;;
72132;SDS011;60008;50.826;6.896;2023-01-29T10:45:01;23.58;;;9.98;;
72132;SDS011;60008;50.826;6.896;2023-01-29T10:48:06;15.48;;;6.70;;
72132;SDS011;60008;50.826;6.896;2023-01-29T10:54:34;17.80;;;8.00;;
72132;SDS011;60008;50.826;6.896;2023-01-29T10:57:49;25.98;;;11.00;;
72132;SDS011;60008;50.826;6.896;2023-01-29T11:00:51;32.55;;;11.85;;
72132;SDS011;60008;50.826;6.896;2023-01-29T11:03:36;25.40;;;11.27;;
72132;SDS011;60008;50.826;6.896;2023-01-29T11:06:27;23.25;;;9.57;;
72132;SDS011;60008;50.826;6.896;2023-01-29T11:12:13;33.35;;;13.57;;
72132;SDS011;60008;50.826;6.896;2023-01-29T11:15:23;31.52;;;12.82;;
72132;SDS011;60008;50.826;6.896;2023-01-29T11:18:13;31.45;;;12.85;;
72132;SDS011;60008;50.826;6.896;2023-01-29T11:21:00;28.05;;;11.55;;
72132;SDS011;60008;50.826;6.896;2023-01-29T11:23:47;32.80;;;12.40;;
72132;SDS011;60008;50.826;6.896;2023-01-29T11:26:32;29.08;;;12.07;;
72132;SDS011;60008;50.826;6.896;2023-01-29T11:32:33;32.78;;;12.77;;
72132;SDS011;60008;50.826;6.896;2023-01-29T11:35:20;29.35;;;11.88;;
72132;SDS011;60008;50.826;6.896;2023-01-29T11:38:08;28.67;;;12.37;;
72132;SDS011;60008;50.826;6.896;2023-01-29T11:41:09;29.08;;;12.50;;
72132;SDS011;60008;50.826;6.896;2023-01-29T11:44:01;32.42;;;12.68;;
72132;SDS011;60008;50.826;6.896;2023-01-29T11:47:18;35.70;;;12.02;;
72132;SDS011;60008;50.826;6.896;2023-01-29T11:50:03;32.28;;;13.18;;
72132;SDS011;60008;50.826;6.896;2023-01-29T11:52:49;31.13;;;13.47;;
72132;SDS011;60008;50.826;6.896;2023-01-29T11:55:34;29.98;;;12.77;;
72132;SDS011;60008;50.826;6.896;2023-01-29T11:58:33;34.00;;;13.68;;
72132;SDS011;60008;50.826;6.896;2023-01-29T12:01:23;35.38;;;13.55;;
72132;SDS011;60008;50.826;6.896;2023-01-29T12:04:19;33.88;;;10.85;;
72132;SDS011;60008;50.826;6.896;2023-01-29T12:07:14;30.37;;;12.97;;
72132;SDS011;60008;50.826;6.896;2023-01-29T12:10:01;33.55;;;13.95;;
72132;SDS011;60008;50.826;6.896;2023-01-29T12:12:47;33.15;;;13.68;;
72132;SDS011;60008;50.826;6.896;2023-01-29T12:15:33;35.10;;;13.45;;
72132;SDS011;60008;50.826;6.896;2023-01-29T12:18:28;30.45;;;12.60;;
72132;SDS011;60008;50.826;6.896;2023-01-29T12:21:29;36.47;;;15.10;;
72132;SDS011;60008;50.826;6.896;2023-01-29T12:24:56;32.53;;;14.25;;
72132;SDS011;60008;50.826;6.896;2023-01-29T12:27:48;35.00;;;14.07;;
72132;SDS011;60008;50.826;6.896;2023-01-29T12:30:49;34.85;;;14.20;;
72132;SDS011;60008;50.826;6.896;2023-01-29T12:36:58;30.50;;;12.50;;
72132;SDS011;60008;50.826;6.896;2023-01-29T12:39:48;19.45;;;8.55;;
72132;SDS011;60008;50.826;6.896;2023-01-29T12:42:35;32.40;;;12.93;;
72132;SDS011;60008;50.826;6.896;2023-01-29T12:45:24;34.20;;;13.70;;
72132;SDS011;60008;50.826;6.896;2023-01-29T12:48:12;34.13;;;13.43;;
72132;SDS011;60008;50.826;6.896;2023-01-29T12:51:24;30.20;;;11.40;;
72132;SDS011;60008;50.826;6.896;2023-01-29T12:54:12;30.70;;;13.02;;
72132;SDS011;60008;50.826;6.896;2023-01-29T12:57:01;32.45;;;13.13;;
72132;SDS011;60008;50.826;6.896;2023-01-29T12:59:52;37.60;;;14.70;;
72132;SDS011;60008;50.826;6.896;2023-01-29T13:06:07;28.67;;;11.70;;
72132;SDS011;60008;50.826;6.896;2023-01-29T13:08:57;33.50;;;12.23;;
72132;SDS011;60008;50.826;6.896;2023-01-29T13:11:50;29.13;;;12.10;;
72132;SDS011;60008;50.826;6.896;2023-01-29T13:14:41;39.50;;;13.10;;
72132;SDS011;60008;50.826;6.896;2023-01-29T13:17:32;29.23;;;12.52;;
72132;SDS011;60008;50.826;6.896;2023-01-29T13:20:25;28.97;;;11.53;;
72132;SDS011;60008;50.826;6.896;2023-01-29T13:23:17;27.55;;;11.43;;
72132;SDS011;60008;50.826;6.896;2023-01-29T13:26:05;30.38;;;12.35;;
72132;SDS011;60008;50.826;6.896;2023-01-29T13:28:50;34.55;;;13.13;;
72132;SDS011;60008;50.826;6.896;2023-01-29T13:31:36;29.70;;;12.18;;
72132;SDS011;60008;50.826;6.896;2023-01-29T13:37:21;33.38;;;12.07;;
72132;SDS011;60008;50.826;6.896;2023-01-29T13:40:18;27.95;;;11.57;;
72132;SDS011;60008;50.826;6.896;2023-01-29T13:43:11;33.85;;;13.52;;
72132;SDS011;60008;50.826;6.896;2023-01-29T13:46:09;29.58;;;11.80;;
72132;SDS011;60008;50.826;6.896;2023-01-29T13:48:57;29.93;;;12.20;;
72132;SDS011;60008;50.826;6.896;2023-01-29T13:51:45;28.23;;;10.13;;
72132;SDS011;60008;50.826;6.896;2023-01-29T13:54:30;30.95;;;11.02;;
72132;SDS011;60008;50.826;6.896;2023-01-29T14:05:59;14.70;;;5.88;;
72132;SDS011;60008;50.826;6.896;2023-01-29T14:08:44;13.48;;;5.28;;
72132;SDS011;60008;50.826;6.896;2023-01-29T14:11:34;14.52;;;5.28;;
72132;SDS011;60008;50.826;6.896;2023-01-29T14:17:32;6.40;;;2.77;;
72132;SDS011;60008;50.826;6.896;2023-01-29T14:20:22;8.25;;;3.03;;
72132;SDS011;60008;50.826;6.896;2023-01-29T14:23:28;6.03;;;2.35;;
72132;SDS011;60008;50.826;6.896;2023-01-29T14:26:26;4.70;;;2.13;;
72132;SDS011;60008;50.826;6.896;2023-01-29T14:29:18;9.75;;;3.10;;
72132;SDS011;60008;50.826;6.896;2023-01-29T14:32:21;7.20;;;2.20;;
72132;SDS011;60008;50.826;6.896;2023-01-29T14:35:18;5.97;;;2.63;;
72132;SDS011;60008;50.826;6.896;2023-01-29T14:38:06;4.38;;;1.80;;
72132;SDS011;60008;50.826;6.896;2023-01-29T14:40:52;8.43;;;2.38;;
72132;SDS011;60008;50.826;6.896;2023-01-29T14:43:47;4.38;;;1.20;;
72132;SDS011;60008;50.826;6.896;2023-01-29T14:49:46;11.00;;;3.20;;
72132;SDS011;60008;50.826;6.896;2023-01-29T14:52:34;7.32;;;2.33;;
72132;SDS011;60008;50.826;6.896;2023-01-29T14:55:26;4.28;;;1.88;;
72132;SDS011;60008;50.826;6.896;2023-01-29T14:58:16;7.93;;;1.60;;
72132;SDS011;60008;50.826;6.896;2023-01-29T15:01:10;6.80;;;2.53;;
72132;SDS011;60008;50.826;6.896;2023-01-29T15:07:04;10.32;;;2.55;;
72132;SDS011;60008;50.826;6.896;2023-01-29T15:10:02;3.35;;;1.50;;
72132;SDS011;60008;50.826;6.896;2023-01-29T15:16:01;6.07;;;2.63;;
72132;SDS011;60008;50.826;6.896;2023-01-29T15:19:03;8.10;;;2.30;;
72132;SDS011;60008;50.826;6.896;2023-01-29T15:22:03;6.28;;;2.80;;
72132;SDS011;60008;50.826;6.896;2023-01-29T15:25:03;7.57;;;3.20;;
72132;SDS011;60008;50.826;6.896;2023-01-29T15:28:08;6.53;;;2.67;;
72132;SDS011;60008;50.826;6.896;2023-01-29T15:30:54;6.07;;;2.57;;
72132;SDS011;60008;50.826;6.896;2023-01-29T15:33:44;9.02;;;3.33;;
72132;SDS011;60008;50.826;6.896;2023-01-29T15:36:30;8.43;;;3.20;;
72132;SDS011;60008;50.826;6.896;2023-01-29T15:39:17;10.68;;;2.75;;
72132;SDS011;60008;50.826;6.896;2023-01-29T15:42:11;7.68;;;3.47;;
72132;SDS011;60008;50.826;6.896;2023-01-29T15:45:18;4.70;;;1.67;;
72132;SDS011;60008;50.826;6.896;2023-01-29T15:48:06;3.65;;;1.38;;
72132;SDS011;60008;50.826;6.896;2023-01-29T15:50:57;5.78;;;2.30;;
72132;SDS011;60008;50.826;6.896;2023-01-29T15:53:45;7.45;;;2.40;;
72132;SDS011;60008;50.826;6.896;2023-01-29T15:56:39;7.47;;;2.15;;
72132;SDS011;60008;50.826;6.896;2023-01-29T15:59:28;5.37;;;1.40;;
72132;SDS011;60008;50.826;6.896;2023-01-29T16:05:19;9.88;;;3.40;;
72132;SDS011;60008;50.826;6.896;2023-01-29T16:08:09;2.10;;;0.85;;
72132;SDS011;60008;50.826;6.896;2023-01-29T16:10:58;4.65;;;2.08;;
72132;SDS011;60008;50.826;6.896;2023-01-29T16:13:46;14.03;;;4.63;;
72132;SDS011;60008;50.826;6.896;2023-01-29T16:16:33;3.22;;;1.75;;
72132;SDS011;60008;50.826;6.896;2023-01-29T16:19:23;12.60;;;4.97;;
72132;SDS011;60008;50.826;6.896;2023-01-29T16:22:11;12.20;;;5.07;;
72132;SDS011;60008;50.826;6.896;2023-01-29T16:25:00;6.00;;;2.90;;
72132;SDS011;60008;50.826;6.896;2023-01-29T16:27:50;9.77;;;3.83;;
72132;SDS011;60008;50.826;6.896;2023-01-29T16:30:35;8.35;;;3.15;;
72132;SDS011;60008;50.826;6.896;2023-01-29T16:33:21;8.80;;;4.05;;
72132;SDS011;60008;50.826;6.896;2023-01-29T16:36:20;14.15;;;4.90;;
72132;SDS011;60008;50.826;6.896;2023-01-29T16:39:12;13.35;;;4.97;;
72132;SDS011;60008;50.826;6.896;2023-01-29T16:47:41;16.13;;;5.30;;
72132;SDS011;60008;50.826;6.896;2023-01-29T16:50:32;17.83;;;6.28;;
72132;SDS011;60008;50.826;6.896;2023-01-29T16:53:37;7.53;;;2.38;;
72132;SDS011;60008;50.826;6.896;2023-01-29T16:56:22;13.47;;;5.60;;
72132;SDS011;60008;50.826;6.896;2023-01-29T16:59:11;9.23;;;4.03;;
72132;SDS011;60008;50.826;6.896;2023-01-29T17:02:21;15.05;;;4.60;;
72132;SDS011;60008;50.826;6.896;2023-01-29T17:05:16;8.20;;;3.40;;
72132;SDS011;60008;50.826;6.896;2023-01-29T17:08:12;6.93;;;3.08;;
72132;SDS011;60008;50.826;6.896;2023-01-29T17:11:04;12.73;;;5.27;;
72132;SDS011;60008;50.826;6.896;2023-01-29T17:13:51;2.08;;;0.95;;
72132;SDS011;60008;50.826;6.896;2023-01-29T17:16:47;12.52;;;5.00;;
72132;SDS011;60008;50.826;6.896;2023-01-29T17:19:53;4.40;;;1.88;;
72132;SDS011;60008;50.826;6.896;2023-01-29T17:22:38;7.47;;;3.10;;
72132;SDS011;60008;50.826;6.896;2023-01-29T17:25:23;7.20;;;2.97;;
72132;SDS011;60008;50.826;6.896;2023-01-29T17:28:10;13.55;;;4.85;;
72132;SDS011;60008;50.826;6.896;2023-01-29T17:30:57;13.82;;;5.55;;
72132;SDS011;60008;50.826;6.896;2023-01-29T17:33:50;10.10;;;4.85;;
72132;SDS011;60008;50.826;6.896;2023-01-29T17:36:35;10.43;;;3.53;;
72132;SDS011;60008;50.826;6.896;2023-01-29T17:39:21;4.87;;;2.10;;
72132;SDS011;60008;50.826;6.896;2023-01-29T17:42:09;8.85;;;4.43;;
72132;SDS011;60008;50.826;6.896;2023-01-29T17:44:57;8.32;;;2.13;;
72132;SDS011;60008;50.826;6.896;2023-01-29T17:47:42;8.38;;;3.85;;
72132;SDS011;60008;50.826;6.896;2023-01-29T17:50:27;3.92;;;1.67;;
72132;SDS011;60008;50.826;6.896;2023-01-29T17:53:14;7.83;;;2.90;;
72132;SDS011;60008;50.826;6.896;2023-01-29T17:56:00;10.25;;;4.72;;
72132;SDS011;60008;50.826;6.896;2023-01-29T17:58:45;11.52;;;3.83;;
72132;SDS011;60008;50.826;6.896;2023-01-29T18:01:30;7.63;;;3.30;;
72132;SDS011;60008;50.826;6.896;2023-01-29T18:04:15;11.68;;;4.72;;
72132;SDS011;60008;50.826;6.896;2023-01-29T18:07:00;8.67;;;3.30;;
72132;SDS011;60008;50.826;6.896;2023-01-29T18:09:44;4.18;;;1.80;;
72132;SDS011;60008;50.826;6.896;2023-01-29T18:12:29;6.03;;;2.30;;
72132;SDS011;60008;50.826;6.896;2023-01-29T18:15:14;11.18;;;4.63;;